sensor_id;sensor_type;location;lat;lon;timestamp;P1;durP1;ratioP1;P2;durP2;ratioP2
5483;SDS011;2764;48.794;8.326;2022-11-27T00:00:58;36.10;;;19.00;;
5483;SDS011;2764;48.794;8.326;2022-11-27T00:02:00;46.03;;;20.13;;
5483;SDS011;2764;48.794;8.326;2022-11-27T00:03:01;34.95;;;19.65;;
5483;SDS011;2764;48.794;8.326;2022-11-27T00:04:07;38.72;;;19.55;;
5483;SDS011;2764;48.794;8.326;2022-11-27T00:05:09;32.97;;;18.33;;
5483;SDS011;2764;48.794;8.326;2022-11-27T00:06:11;38.03;;;19.77;;
5483;SDS011;2764;48.794;8.326;2022-11-27T00:07:16;59.42;;;22.77;;
5483;SDS011;2764;48.794;8.326;2022-11-27T00:08:17;57.63;;;26.92;;
5483;SDS011;2764;48.794;8.326;2022-11-27T00:09:19;47.90;;;25.80;;
5483;SDS011;2764;48.794;8.326;2022-11-27T00:10:21;50.92;;;26.17;;
5483;SDS011;2764;48.794;8.326;2022-11-27T00:11:23;69.88;;;26.25;;
5483;SDS011;2764;48.794;8.326;2022-11-27T00:12:26;71.90;;;27.15;;
5483;SDS011;2764;48.794;8.326;2022-11-27T00:13:28;82.90;;;25.98;;
5483;SDS011;2764;48.794;8.326;2022-11-27T00:14:29;45.67;;;26.50;;
5483;SDS011;2764;48.794;8.326;2022-11-27T00:15:31;151.57;;;30.75;;
5483;SDS011;2764;48.794;8.326;2022-11-27T00:16:33;120.63;;;27.52;;
5483;SDS011;2764;48.794;8.326;2022-11-27T00:17:34;57.40;;;24.98;;
5483;SDS011;2764;48.794;8.326;2022-11-27T00:18:37;81.18;;;26.52;;
5483;SDS011;2764;48.794;8.326;2022-11-27T00:19:38;96.45;;;27.77;;
5483;SDS011;2764;48.794;8.326;2022-11-27T00:20:41;46.97;;;24.35;;
5483;SDS011;2764;48.794;8.326;2022-11-27T00:21:42;172.35;;;31.02;;
5483;SDS011;2764;48.794;8.326;2022-11-27T00:22:44;192.63;;;37.17;;
5483;SDS011;2764;48.794;8.326;2022-11-27T00:23:46;50.13;;;26.35;;
5483;SDS011;2764;48.794;8.326;2022-11-27T00:24:47;55.38;;;27.75;;
5483;SDS011;2764;48.794;8.326;2022-11-27T00:25:52;63.35;;;27.20;;
5483;SDS011;2764;48.794;8.326;2022-11-27T00:26:54;58.88;;;28.27;;
5483;SDS011;2764;48.794;8.326;2022-11-27T00:27:56;53.67;;;24.17;;
5483;SDS011;2764;48.794;8.326;2022-11-27T00:28:57;42.47;;;23.88;;
5483;SDS011;2764;48.794;8.326;2022-11-27T00:29:59;33.17;;;20.58;;
5483;SDS011;2764;48.794;8.326;2022-11-27T00:31:01;100.63;;;26.02;;
5483;SDS011;2764;48.794;8.326;2022-11-27T00:32:09;68.95;;;23.85;;
5483;SDS011;2764;48.794;8.326;2022-11-27T00:33:10;76.25;;;23.48;;
5483;SDS011;2764;48.794;8.326;2022-11-27T00:34:12;105.82;;;29.65;;
5483;SDS011;2764;48.794;8.326;2022-11-27T00:35:14;62.42;;;26.88;;
5483;SDS011;2764;48.794;8.326;2022-11-27T00:36:16;59.05;;;26.25;;
5483;SDS011;2764;48.794;8.326;2022-11-27T00:37:18;65.93;;;28.17;;
5483;SDS011;2764;48.794;8.326;2022-11-27T00:38:20;61.30;;;26.65;;
5483;SDS011;2764;48.794;8.326;2022-11-27T00:39:22;74.88;;;27.70;;
5483;SDS011;2764;48.794;8.326;2022-11-27T00:40:23;65.30;;;26.67;;
5483;SDS011;2764;48.794;8.326;2022-11-27T00:41:26;44.50;;;24.13;;
5483;SDS011;2764;48.794;8.326;2022-11-27T00:42:29;66.43;;;26.67;;
5483;SDS011;2764;48.794;8.326;2022-11-27T00:43:31;50.40;;;25.17;;
5483;SDS011;2764;48.794;8.326;2022-11-27T00:44:44;45.83;;;25.73;;
5483;SDS011;2764;48.794;8.326;2022-11-27T00:45:49;98.15;;;30.30;;
5483;SDS011;2764;48.794;8.326;2022-11-27T00:46:50;58.95;;;25.38;;
5483;SDS011;2764;48.794;8.326;2022-11-27T00:47:52;60.45;;;25.88;;
5483;SDS011;2764;48.794;8.326;2022-11-27T00:48:54;66.82;;;26.23;;
5483;SDS011;2764;48.794;8.326;2022-11-27T00:49:57;73.68;;;27.00;;
5483;SDS011;2764;48.794;8.326;2022-11-27T00:51:02;80.80;;;29.65;;
5483;SDS011;2764;48.794;8.326;2022-11-27T00:52:06;102.68;;;31.33;;
5483;SDS011;2764;48.794;8.326;2022-11-27T00:53:08;69.05;;;27.80;;
5483;SDS011;2764;48.794;8.326;2022-11-27T00:54:09;126.13;;;29.52;;
5483;SDS011;2764;48.794;8.326;2022-11-27T00:55:11;67.18;;;26.42;;
5483;SDS011;2764;48.794;8.326;2022-11-27T00:56:17;71.88;;;28.33;;
5483;SDS011;2764;48.794;8.326;2022-11-27T00:57:20;116.20;;;28.25;;
5483;SDS011;2764;48.794;8.326;2022-11-27T00:58:22;57.95;;;25.05;;
5483;SDS011;2764;48.794;8.326;2022-11-27T00:59:24;52.63;;;24.42;;
5483;SDS011;2764;48.794;8.326;2022-11-27T01:00:26;104.93;;;26.92;;
5483;SDS011;2764;48.794;8.326;2022-11-27T01:01:28;83.72;;;26.85;;
5483;SDS011;2764;48.794;8.326;2022-11-27T01:02:32;127.30;;;27.73;;
5483;SDS011;2764;48.794;8.326;2022-11-27T01:03:34;128.07;;;26.55;;
5483;SDS011;2764;48.794;8.326;2022-11-27T01:04:36;44.53;;;20.40;;
5483;SDS011;2764;48.794;8.326;2022-11-27T01:05:38;64.00;;;24.00;;
5483;SDS011;2764;48.794;8.326;2022-11-27T01:06:40;63.70;;;23.10;;
5483;SDS011;2764;48.794;8.326;2022-11-27T01:07:42;114.68;;;24.90;;
5483;SDS011;2764;48.794;8.326;2022-11-27T01:08:43;71.82;;;23.92;;
5483;SDS011;2764;48.794;8.326;2022-11-27T01:09:45;53.35;;;25.40;;
5483;SDS011;2764;48.794;8.326;2022-11-27T01:10:48;133.00;;;27.52;;
5483;SDS011;2764;48.794;8.326;2022-11-27T01:11:55;143.20;;;27.75;;
5483;SDS011;2764;48.794;8.326;2022-11-27T01:12:57;114.88;;;26.35;;
5483;SDS011;2764;48.794;8.326;2022-11-27T01:14:00;140.35;;;26.67;;
5483;SDS011;2764;48.794;8.326;2022-11-27T01:15:04;113.97;;;25.85;;
5483;SDS011;2764;48.794;8.326;2022-11-27T01:16:07;63.75;;;25.08;;
5483;SDS011;2764;48.794;8.326;2022-11-27T01:17:13;520.42;;;40.25;;
5483;SDS011;2764;48.794;8.326;2022-11-27T01:18:15;563.33;;;44.65;;
5483;SDS011;2764;48.794;8.326;2022-11-27T01:19:16;523.72;;;41.08;;
5483;SDS011;2764;48.794;8.326;2022-11-27T01:20:19;210.38;;;32.03;;
5483;SDS011;2764;48.794;8.326;2022-11-27T01:21:21;442.75;;;36.35;;
5483;SDS011;2764;48.794;8.326;2022-11-27T01:22:22;487.15;;;36.55;;
5483;SDS011;2764;48.794;8.326;2022-11-27T01:23:24;247.73;;;34.22;;
5483;SDS011;2764;48.794;8.326;2022-11-27T01:24:26;63.67;;;24.08;;
5483;SDS011;2764;48.794;8.326;2022-11-27T01:25:28;155.45;;;28.00;;
5483;SDS011;2764;48.794;8.326;2022-11-27T01:26:29;187.23;;;28.20;;
5483;SDS011;2764;48.794;8.326;2022-11-27T01:27:32;95.82;;;23.60;;
5483;SDS011;2764;48.794;8.326;2022-11-27T01:28:34;165.07;;;24.67;;
5483;SDS011;2764;48.794;8.326;2022-11-27T01:29:36;53.05;;;20.67;;
5483;SDS011;2764;48.794;8.326;2022-11-27T01:30:38;405.00;;;34.55;;
5483;SDS011;2764;48.794;8.326;2022-11-27T01:31:40;151.57;;;27.75;;
5483;SDS011;2764;48.794;8.326;2022-11-27T01:32:42;102.20;;;23.15;;
5483;SDS011;2764;48.794;8.326;2022-11-27T01:33:44;83.47;;;22.30;;
5483;SDS011;2764;48.794;8.326;2022-11-27T01:34:46;30.70;;;18.70;;
5483;SDS011;2764;48.794;8.326;2022-11-27T01:35:54;104.07;;;24.17;;
5483;SDS011;2764;48.794;8.326;2022-11-27T01:36:57;129.07;;;22.90;;
5483;SDS011;2764;48.794;8.326;2022-11-27T01:37:59;101.50;;;21.38;;
5483;SDS011;2764;48.794;8.326;2022-11-27T01:39:01;77.63;;;21.45;;
5483;SDS011;2764;48.794;8.326;2022-11-27T01:40:03;130.23;;;25.58;;
5483;SDS011;2764;48.794;8.326;2022-11-27T01:42:15;151.32;;;23.85;;
5483;SDS011;2764;48.794;8.326;2022-11-27T01:43:16;46.45;;;20.27;;
5483;SDS011;2764;48.794;8.326;2022-11-27T01:45:26;72.28;;;22.77;;
5483;SDS011;2764;48.794;8.326;2022-11-27T01:46:35;30.63;;;17.05;;
5483;SDS011;2764;48.794;8.326;2022-11-27T01:48:53;45.30;;;20.00;;
5483;SDS011;2764;48.794;8.326;2022-11-27T01:50:05;52.22;;;20.58;;
5483;SDS011;2764;48.794;8.326;2022-11-27T01:51:09;208.20;;;27.00;;
5483;SDS011;2764;48.794;8.326;2022-11-27T01:52:12;145.38;;;24.73;;
5483;SDS011;2764;48.794;8.326;2022-11-27T01:53:20;166.85;;;24.67;;
5483;SDS011;2764;48.794;8.326;2022-11-27T01:54:23;186.20;;;26.65;;
5483;SDS011;2764;48.794;8.326;2022-11-27T01:55:31;42.08;;;20.63;;
5483;SDS011;2764;48.794;8.326;2022-11-27T01:56:36;69.10;;;23.17;;
5483;SDS011;2764;48.794;8.326;2022-11-27T01:57:41;201.48;;;30.20;;
5483;SDS011;2764;48.794;8.326;2022-11-27T01:58:45;147.35;;;25.98;;
5483;SDS011;2764;48.794;8.326;2022-11-27T01:59:48;117.18;;;24.25;;
5483;SDS011;2764;48.794;8.326;2022-11-27T02:00:52;59.90;;;23.83;;
5483;SDS011;2764;48.794;8.326;2022-11-27T02:01:54;63.45;;;22.92;;
5483;SDS011;2764;48.794;8.326;2022-11-27T02:02:56;77.50;;;25.40;;
5483;SDS011;2764;48.794;8.326;2022-11-27T02:03:58;74.50;;;23.88;;
5483;SDS011;2764;48.794;8.326;2022-11-27T02:05:02;59.22;;;21.48;;
5483;SDS011;2764;48.794;8.326;2022-11-27T02:06:03;81.93;;;22.40;;
5483;SDS011;2764;48.794;8.326;2022-11-27T02:07:05;39.30;;;19.17;;
5483;SDS011;2764;48.794;8.326;2022-11-27T02:08:08;77.35;;;23.48;;
5483;SDS011;2764;48.794;8.326;2022-11-27T02:09:13;101.47;;;25.95;;
5483;SDS011;2764;48.794;8.326;2022-11-27T02:10:14;52.80;;;21.23;;
5483;SDS011;2764;48.794;8.326;2022-11-27T02:11:20;104.97;;;22.25;;
5483;SDS011;2764;48.794;8.326;2022-11-27T02:13:56;195.05;;;26.60;;
5483;SDS011;2764;48.794;8.326;2022-11-27T02:17:51;89.85;;;21.00;;
5483;SDS011;2764;48.794;8.326;2022-11-27T02:20:55;154.38;;;22.48;;
5483;SDS011;2764;48.794;8.326;2022-11-27T02:22:08;38.45;;;19.08;;
5483;SDS011;2764;48.794;8.326;2022-11-27T02:24:59;58.03;;;18.38;;
5483;SDS011;2764;48.794;8.326;2022-11-27T02:26:16;160.32;;;23.23;;
5483;SDS011;2764;48.794;8.326;2022-11-27T02:30:08;53.17;;;17.77;;
5483;SDS011;2764;48.794;8.326;2022-11-27T02:31:15;42.47;;;16.40;;
5483;SDS011;2764;48.794;8.326;2022-11-27T02:32:24;62.65;;;19.25;;
5483;SDS011;2764;48.794;8.326;2022-11-27T02:33:31;65.80;;;18.63;;
5483;SDS011;2764;48.794;8.326;2022-11-27T02:38:21;161.70;;;24.27;;
5483;SDS011;2764;48.794;8.326;2022-11-27T02:39:33;225.82;;;25.52;;
5483;SDS011;2764;48.794;8.326;2022-11-27T02:40:48;168.40;;;23.15;;
5483;SDS011;2764;48.794;8.326;2022-11-27T02:41:58;118.93;;;21.58;;
5483;SDS011;2764;48.794;8.326;2022-11-27T02:43:13;144.80;;;19.98;;
5483;SDS011;2764;48.794;8.326;2022-11-27T02:44:19;68.35;;;17.20;;
5483;SDS011;2764;48.794;8.326;2022-11-27T02:45:25;101.38;;;19.55;;
5483;SDS011;2764;48.794;8.326;2022-11-27T02:46:32;104.40;;;18.38;;
5483;SDS011;2764;48.794;8.326;2022-11-27T02:47:34;142.73;;;25.20;;
5483;SDS011;2764;48.794;8.326;2022-11-27T02:48:47;119.50;;;22.45;;
5483;SDS011;2764;48.794;8.326;2022-11-27T02:49:50;145.27;;;24.30;;
5483;SDS011;2764;48.794;8.326;2022-11-27T02:50:57;185.40;;;26.27;;
5483;SDS011;2764;48.794;8.326;2022-11-27T02:51:59;135.43;;;27.60;;
5483;SDS011;2764;48.794;8.326;2022-11-27T02:53:03;56.03;;;20.23;;
5483;SDS011;2764;48.794;8.326;2022-11-27T02:54:12;102.03;;;24.38;;
5483;SDS011;2764;48.794;8.326;2022-11-27T02:55:21;102.10;;;23.70;;
5483;SDS011;2764;48.794;8.326;2022-11-27T02:56:26;125.30;;;24.10;;
5483;SDS011;2764;48.794;8.326;2022-11-27T02:57:30;129.18;;;22.63;;
5483;SDS011;2764;48.794;8.326;2022-11-27T02:58:33;137.98;;;25.00;;
5483;SDS011;2764;48.794;8.326;2022-11-27T02:59:37;95.90;;;19.63;;
5483;SDS011;2764;48.794;8.326;2022-11-27T03:00:41;108.05;;;23.27;;
5483;SDS011;2764;48.794;8.326;2022-11-27T03:01:47;187.07;;;26.65;;
5483;SDS011;2764;48.794;8.326;2022-11-27T03:02:54;106.45;;;21.25;;
5483;SDS011;2764;48.794;8.326;2022-11-27T03:04:01;266.55;;;24.77;;
5483;SDS011;2764;48.794;8.326;2022-11-27T03:05:09;193.48;;;23.27;;
5483;SDS011;2764;48.794;8.326;2022-11-27T03:06:23;203.80;;;26.33;;
5483;SDS011;2764;48.794;8.326;2022-11-27T03:08:16;104.05;;;20.10;;
5483;SDS011;2764;48.794;8.326;2022-11-27T03:10:11;241.48;;;28.10;;
5483;SDS011;2764;48.794;8.326;2022-11-27T03:11:20;144.55;;;21.80;;
5483;SDS011;2764;48.794;8.326;2022-11-27T03:12:23;60.20;;;19.63;;
5483;SDS011;2764;48.794;8.326;2022-11-27T03:13:25;182.43;;;25.75;;
5483;SDS011;2764;48.794;8.326;2022-11-27T03:14:28;195.57;;;26.67;;
5483;SDS011;2764;48.794;8.326;2022-11-27T03:15:36;261.30;;;29.08;;
5483;SDS011;2764;48.794;8.326;2022-11-27T03:19:56;205.45;;;27.10;;
5483;SDS011;2764;48.794;8.326;2022-11-27T03:21:09;174.77;;;26.48;;
5483;SDS011;2764;48.794;8.326;2022-11-27T03:22:30;182.48;;;25.00;;
5483;SDS011;2764;48.794;8.326;2022-11-27T03:23:32;65.75;;;20.80;;
5483;SDS011;2764;48.794;8.326;2022-11-27T03:24:33;50.10;;;18.08;;
5483;SDS011;2764;48.794;8.326;2022-11-27T03:25:36;46.08;;;18.45;;
5483;SDS011;2764;48.794;8.326;2022-11-27T03:26:38;52.97;;;18.48;;
5483;SDS011;2764;48.794;8.326;2022-11-27T03:28:14;115.07;;;21.88;;
5483;SDS011;2764;48.794;8.326;2022-11-27T03:29:16;121.10;;;21.60;;
5483;SDS011;2764;48.794;8.326;2022-11-27T03:30:22;90.47;;;23.95;;
5483;SDS011;2764;48.794;8.326;2022-11-27T03:31:23;77.60;;;21.45;;
5483;SDS011;2764;48.794;8.326;2022-11-27T03:32:26;76.43;;;20.10;;
5483;SDS011;2764;48.794;8.326;2022-11-27T03:33:30;90.60;;;21.20;;
5483;SDS011;2764;48.794;8.326;2022-11-27T03:34:32;107.05;;;23.25;;
5483;SDS011;2764;48.794;8.326;2022-11-27T03:35:34;78.38;;;21.42;;
5483;SDS011;2764;48.794;8.326;2022-11-27T03:36:36;108.72;;;23.35;;
5483;SDS011;2764;48.794;8.326;2022-11-27T03:37:37;98.38;;;22.45;;
5483;SDS011;2764;48.794;8.326;2022-11-27T03:38:39;65.40;;;21.17;;
5483;SDS011;2764;48.794;8.326;2022-11-27T03:39:42;55.72;;;20.50;;
5483;SDS011;2764;48.794;8.326;2022-11-27T03:40:47;58.95;;;20.30;;
5483;SDS011;2764;48.794;8.326;2022-11-27T03:43:19;67.30;;;18.30;;
5483;SDS011;2764;48.794;8.326;2022-11-27T03:50:50;115.25;;;22.40;;
5483;SDS011;2764;48.794;8.326;2022-11-27T03:52:51;123.97;;;22.42;;
5483;SDS011;2764;48.794;8.326;2022-11-27T03:53:51;77.10;;;19.90;;
5483;SDS011;2764;48.794;8.326;2022-11-27T03:55:11;75.03;;;20.73;;
5483;SDS011;2764;48.794;8.326;2022-11-27T03:56:24;67.10;;;17.23;;
5483;SDS011;2764;48.794;8.326;2022-11-27T03:57:28;51.67;;;18.67;;
5483;SDS011;2764;48.794;8.326;2022-11-27T03:58:35;54.72;;;18.40;;
5483;SDS011;2764;48.794;8.326;2022-11-27T03:59:45;68.07;;;20.10;;
5483;SDS011;2764;48.794;8.326;2022-11-27T04:00:50;113.07;;;21.55;;
5483;SDS011;2764;48.794;8.326;2022-11-27T04:01:53;132.75;;;22.60;;
5483;SDS011;2764;48.794;8.326;2022-11-27T04:02:55;83.75;;;19.88;;
5483;SDS011;2764;48.794;8.326;2022-11-27T04:03:56;81.78;;;21.13;;
5483;SDS011;2764;48.794;8.326;2022-11-27T04:04:58;151.50;;;27.70;;
5483;SDS011;2764;48.794;8.326;2022-11-27T04:05:59;179.38;;;25.33;;
5483;SDS011;2764;48.794;8.326;2022-11-27T04:07:01;114.45;;;22.77;;
5483;SDS011;2764;48.794;8.326;2022-11-27T04:08:03;160.85;;;26.25;;
5483;SDS011;2764;48.794;8.326;2022-11-27T04:09:05;131.68;;;23.77;;
5483;SDS011;2764;48.794;8.326;2022-11-27T04:10:07;143.82;;;27.42;;
5483;SDS011;2764;48.794;8.326;2022-11-27T04:11:10;85.13;;;22.33;;
5483;SDS011;2764;48.794;8.326;2022-11-27T04:12:11;133.77;;;25.90;;
5483;SDS011;2764;48.794;8.326;2022-11-27T04:13:13;123.90;;;24.33;;
5483;SDS011;2764;48.794;8.326;2022-11-27T04:14:15;74.05;;;21.77;;
5483;SDS011;2764;48.794;8.326;2022-11-27T04:15:17;81.63;;;21.50;;
5483;SDS011;2764;48.794;8.326;2022-11-27T04:16:19;59.08;;;19.77;;
5483;SDS011;2764;48.794;8.326;2022-11-27T04:17:21;62.97;;;19.27;;
5483;SDS011;2764;48.794;8.326;2022-11-27T04:18:23;92.32;;;20.42;;
5483;SDS011;2764;48.794;8.326;2022-11-27T04:19:24;55.22;;;19.90;;
5483;SDS011;2764;48.794;8.326;2022-11-27T04:20:26;46.13;;;17.20;;
5483;SDS011;2764;48.794;8.326;2022-11-27T04:21:29;64.80;;;20.85;;
5483;SDS011;2764;48.794;8.326;2022-11-27T04:22:31;67.30;;;21.10;;
5483;SDS011;2764;48.794;8.326;2022-11-27T04:23:33;56.88;;;19.23;;
5483;SDS011;2764;48.794;8.326;2022-11-27T04:24:34;52.90;;;18.35;;
5483;SDS011;2764;48.794;8.326;2022-11-27T04:25:36;72.57;;;21.48;;
5483;SDS011;2764;48.794;8.326;2022-11-27T04:26:37;85.30;;;20.95;;
5483;SDS011;2764;48.794;8.326;2022-11-27T04:27:39;60.45;;;20.33;;
5483;SDS011;2764;48.794;8.326;2022-11-27T04:28:41;52.25;;;18.55;;
5483;SDS011;2764;48.794;8.326;2022-11-27T04:29:42;51.90;;;17.52;;
5483;SDS011;2764;48.794;8.326;2022-11-27T04:30:44;59.72;;;19.35;;
5483;SDS011;2764;48.794;8.326;2022-11-27T04:31:50;43.47;;;17.48;;
5483;SDS011;2764;48.794;8.326;2022-11-27T04:32:52;53.38;;;16.83;;
5483;SDS011;2764;48.794;8.326;2022-11-27T04:33:53;57.10;;;18.77;;
5483;SDS011;2764;48.794;8.326;2022-11-27T04:34:55;44.88;;;16.60;;
5483;SDS011;2764;48.794;8.326;2022-11-27T04:35:57;49.63;;;17.33;;
5483;SDS011;2764;48.794;8.326;2022-11-27T04:36:58;77.32;;;21.02;;
5483;SDS011;2764;48.794;8.326;2022-11-27T04:38:00;64.53;;;19.65;;
5483;SDS011;2764;48.794;8.326;2022-11-27T04:39:02;78.13;;;20.50;;
5483;SDS011;2764;48.794;8.326;2022-11-27T04:40:04;64.15;;;19.60;;
5483;SDS011;2764;48.794;8.326;2022-11-27T04:41:06;70.25;;;20.38;;
5483;SDS011;2764;48.794;8.326;2022-11-27T04:42:08;59.85;;;18.33;;
5483;SDS011;2764;48.794;8.326;2022-11-27T04:43:09;82.63;;;21.02;;
5483;SDS011;2764;48.794;8.326;2022-11-27T04:44:11;53.25;;;19.80;;
5483;SDS011;2764;48.794;8.326;2022-11-27T04:45:13;66.43;;;18.92;;
5483;SDS011;2764;48.794;8.326;2022-11-27T04:46:15;76.53;;;18.42;;
5483;SDS011;2764;48.794;8.326;2022-11-27T04:47:16;76.28;;;20.25;;
5483;SDS011;2764;48.794;8.326;2022-11-27T04:48:18;89.43;;;21.05;;
5483;SDS011;2764;48.794;8.326;2022-11-27T04:49:20;69.45;;;18.70;;
5483;SDS011;2764;48.794;8.326;2022-11-27T04:50:21;147.57;;;22.20;;
5483;SDS011;2764;48.794;8.326;2022-11-27T04:51:23;100.75;;;21.00;;
5483;SDS011;2764;48.794;8.326;2022-11-27T04:52:24;77.68;;;19.67;;
5483;SDS011;2764;48.794;8.326;2022-11-27T04:53:26;100.13;;;20.10;;
5483;SDS011;2764;48.794;8.326;2022-11-27T04:54:28;54.72;;;16.60;;
5483;SDS011;2764;48.794;8.326;2022-11-27T04:55:29;82.03;;;19.05;;
5483;SDS011;2764;48.794;8.326;2022-11-27T04:56:31;100.72;;;21.05;;
5483;SDS011;2764;48.794;8.326;2022-11-27T04:57:32;51.42;;;16.60;;
5483;SDS011;2764;48.794;8.326;2022-11-27T04:58:34;204.95;;;22.70;;
5483;SDS011;2764;48.794;8.326;2022-11-27T04:59:36;143.77;;;22.55;;
5483;SDS011;2764;48.794;8.326;2022-11-27T05:00:38;118.00;;;21.42;;
5483;SDS011;2764;48.794;8.326;2022-11-27T05:01:40;131.73;;;23.55;;
5483;SDS011;2764;48.794;8.326;2022-11-27T05:02:41;120.25;;;23.30;;
5483;SDS011;2764;48.794;8.326;2022-11-27T05:03:43;110.93;;;23.55;;
5483;SDS011;2764;48.794;8.326;2022-11-27T05:04:47;158.52;;;21.73;;
5483;SDS011;2764;48.794;8.326;2022-11-27T05:05:55;149.85;;;23.90;;
5483;SDS011;2764;48.794;8.326;2022-11-27T05:06:57;203.52;;;24.13;;
5483;SDS011;2764;48.794;8.326;2022-11-27T05:07:59;129.80;;;22.77;;
5483;SDS011;2764;48.794;8.326;2022-11-27T05:09:00;150.77;;;24.02;;
5483;SDS011;2764;48.794;8.326;2022-11-27T05:10:03;183.88;;;25.23;;
5483;SDS011;2764;48.794;8.326;2022-11-27T05:11:07;151.07;;;26.92;;
5483;SDS011;2764;48.794;8.326;2022-11-27T05:12:11;235.20;;;25.60;;
5483;SDS011;2764;48.794;8.326;2022-11-27T05:13:13;205.27;;;24.98;;
5483;SDS011;2764;48.794;8.326;2022-11-27T05:14:15;177.57;;;23.15;;
5483;SDS011;2764;48.794;8.326;2022-11-27T05:15:21;201.35;;;27.92;;
5483;SDS011;2764;48.794;8.326;2022-11-27T05:16:22;219.85;;;29.90;;
5483;SDS011;2764;48.794;8.326;2022-11-27T05:17:24;192.27;;;24.38;;
5483;SDS011;2764;48.794;8.326;2022-11-27T05:18:26;337.38;;;30.75;;
5483;SDS011;2764;48.794;8.326;2022-11-27T05:19:28;193.77;;;26.50;;
5483;SDS011;2764;48.794;8.326;2022-11-27T05:20:31;325.92;;;29.25;;
5483;SDS011;2764;48.794;8.326;2022-11-27T05:21:32;314.92;;;26.98;;
5483;SDS011;2764;48.794;8.326;2022-11-27T05:22:34;296.98;;;28.55;;
5483;SDS011;2764;48.794;8.326;2022-11-27T05:23:36;133.80;;;22.50;;
5483;SDS011;2764;48.794;8.326;2022-11-27T05:24:38;136.40;;;22.88;;
5483;SDS011;2764;48.794;8.326;2022-11-27T05:25:40;219.68;;;27.10;;
5483;SDS011;2764;48.794;8.326;2022-11-27T05:26:42;142.35;;;23.80;;
5483;SDS011;2764;48.794;8.326;2022-11-27T05:27:44;162.00;;;23.60;;
5483;SDS011;2764;48.794;8.326;2022-11-27T05:28:46;153.75;;;22.83;;
5483;SDS011;2764;48.794;8.326;2022-11-27T05:29:47;105.60;;;19.38;;
5483;SDS011;2764;48.794;8.326;2022-11-27T05:30:49;170.93;;;21.73;;
5483;SDS011;2764;48.794;8.326;2022-11-27T05:31:51;150.88;;;20.70;;
5483;SDS011;2764;48.794;8.326;2022-11-27T05:32:53;151.57;;;20.50;;
5483;SDS011;2764;48.794;8.326;2022-11-27T05:33:55;152.43;;;19.75;;
5483;SDS011;2764;48.794;8.326;2022-11-27T05:34:57;81.30;;;16.73;;
5483;SDS011;2764;48.794;8.326;2022-11-27T05:35:59;141.20;;;18.20;;
5483;SDS011;2764;48.794;8.326;2022-11-27T05:37:00;54.00;;;15.27;;
5483;SDS011;2764;48.794;8.326;2022-11-27T05:38:02;110.10;;;18.75;;
5483;SDS011;2764;48.794;8.326;2022-11-27T05:39:04;124.03;;;19.40;;
5483;SDS011;2764;48.794;8.326;2022-11-27T05:40:07;165.38;;;20.98;;
5483;SDS011;2764;48.794;8.326;2022-11-27T05:41:09;217.02;;;21.85;;
5483;SDS011;2764;48.794;8.326;2022-11-27T05:42:10;210.32;;;20.77;;
5483;SDS011;2764;48.794;8.326;2022-11-27T05:43:12;89.57;;;18.40;;
5483;SDS011;2764;48.794;8.326;2022-11-27T05:44:14;62.55;;;16.95;;
5483;SDS011;2764;48.794;8.326;2022-11-27T05:45:16;83.47;;;18.20;;
5483;SDS011;2764;48.794;8.326;2022-11-27T05:46:19;29.40;;;13.57;;
5483;SDS011;2764;48.794;8.326;2022-11-27T05:47:21;96.82;;;18.25;;
5483;SDS011;2764;48.794;8.326;2022-11-27T05:48:23;106.13;;;18.25;;
5483;SDS011;2764;48.794;8.326;2022-11-27T05:49:25;93.63;;;17.90;;
5483;SDS011;2764;48.794;8.326;2022-11-27T05:50:27;82.93;;;16.40;;
5483;SDS011;2764;48.794;8.326;2022-11-27T05:51:28;99.60;;;19.45;;
5483;SDS011;2764;48.794;8.326;2022-11-27T05:52:30;81.35;;;18.30;;
5483;SDS011;2764;48.794;8.326;2022-11-27T05:53:32;62.45;;;17.67;;
5483;SDS011;2764;48.794;8.326;2022-11-27T05:54:34;69.32;;;17.13;;
5483;SDS011;2764;48.794;8.326;2022-11-27T05:55:36;59.97;;;17.55;;
5483;SDS011;2764;48.794;8.326;2022-11-27T05:56:37;50.60;;;16.20;;
5483;SDS011;2764;48.794;8.326;2022-11-27T05:57:39;56.05;;;17.60;;
5483;SDS011;2764;48.794;8.326;2022-11-27T05:58:41;73.88;;;18.65;;
5483;SDS011;2764;48.794;8.326;2022-11-27T05:59:44;58.40;;;18.35;;
5483;SDS011;2764;48.794;8.326;2022-11-27T06:00:46;79.15;;;18.05;;
5483;SDS011;2764;48.794;8.326;2022-11-27T06:01:48;97.75;;;17.95;;
5483;SDS011;2764;48.794;8.326;2022-11-27T06:02:50;74.57;;;17.90;;
5483;SDS011;2764;48.794;8.326;2022-11-27T06:03:51;55.45;;;16.60;;
5483;SDS011;2764;48.794;8.326;2022-11-27T06:04:53;61.65;;;16.80;;
5483;SDS011;2764;48.794;8.326;2022-11-27T06:05:55;56.80;;;17.08;;
5483;SDS011;2764;48.794;8.326;2022-11-27T06:06:57;129.02;;;19.92;;
5483;SDS011;2764;48.794;8.326;2022-11-27T06:07:59;135.25;;;21.88;;
5483;SDS011;2764;48.794;8.326;2022-11-27T06:09:01;105.05;;;20.75;;
5483;SDS011;2764;48.794;8.326;2022-11-27T06:10:06;90.05;;;19.20;;
5483;SDS011;2764;48.794;8.326;2022-11-27T06:11:09;96.68;;;19.35;;
5483;SDS011;2764;48.794;8.326;2022-11-27T06:12:13;71.55;;;19.50;;
5483;SDS011;2764;48.794;8.326;2022-11-27T06:13:15;86.32;;;20.05;;
5483;SDS011;2764;48.794;8.326;2022-11-27T06:14:17;58.90;;;18.80;;
5483;SDS011;2764;48.794;8.326;2022-11-27T06:15:19;58.67;;;17.90;;
5483;SDS011;2764;48.794;8.326;2022-11-27T06:16:21;63.38;;;18.35;;
5483;SDS011;2764;48.794;8.326;2022-11-27T06:17:24;70.75;;;19.20;;
5483;SDS011;2764;48.794;8.326;2022-11-27T06:18:26;48.50;;;17.77;;
5483;SDS011;2764;48.794;8.326;2022-11-27T06:19:28;64.65;;;19.58;;
5483;SDS011;2764;48.794;8.326;2022-11-27T06:20:30;84.78;;;19.95;;
5483;SDS011;2764;48.794;8.326;2022-11-27T06:21:32;77.97;;;20.98;;
5483;SDS011;2764;48.794;8.326;2022-11-27T06:22:34;77.38;;;18.75;;
5483;SDS011;2764;48.794;8.326;2022-11-27T06:23:35;56.30;;;18.60;;
5483;SDS011;2764;48.794;8.326;2022-11-27T06:24:38;78.47;;;20.88;;
5483;SDS011;2764;48.794;8.326;2022-11-27T06:25:40;101.25;;;20.52;;
5483;SDS011;2764;48.794;8.326;2022-11-27T06:26:41;146.68;;;23.30;;
5483;SDS011;2764;48.794;8.326;2022-11-27T06:27:43;165.02;;;22.30;;
5483;SDS011;2764;48.794;8.326;2022-11-27T06:28:45;156.75;;;22.30;;
5483;SDS011;2764;48.794;8.326;2022-11-27T06:29:47;171.05;;;21.38;;
5483;SDS011;2764;48.794;8.326;2022-11-27T06:30:49;114.88;;;20.80;;
5483;SDS011;2764;48.794;8.326;2022-11-27T06:31:51;126.63;;;21.85;;
5483;SDS011;2764;48.794;8.326;2022-11-27T06:32:53;122.60;;;21.20;;
5483;SDS011;2764;48.794;8.326;2022-11-27T06:33:54;150.13;;;22.85;;
5483;SDS011;2764;48.794;8.326;2022-11-27T06:34:57;168.00;;;23.20;;
5483;SDS011;2764;48.794;8.326;2022-11-27T06:35:59;123.80;;;22.98;;
5483;SDS011;2764;48.794;8.326;2022-11-27T06:37:01;75.10;;;19.80;;
5483;SDS011;2764;48.794;8.326;2022-11-27T06:38:03;80.28;;;21.02;;
5483;SDS011;2764;48.794;8.326;2022-11-27T06:39:05;135.70;;;22.80;;
5483;SDS011;2764;48.794;8.326;2022-11-27T06:40:08;118.05;;;26.58;;
5483;SDS011;2764;48.794;8.326;2022-11-27T06:41:11;169.98;;;22.20;;
5483;SDS011;2764;48.794;8.326;2022-11-27T06:42:15;121.03;;;28.73;;
5483;SDS011;2764;48.794;8.326;2022-11-27T06:43:17;143.57;;;20.80;;
5483;SDS011;2764;48.794;8.326;2022-11-27T06:44:18;98.38;;;19.60;;
5483;SDS011;2764;48.794;8.326;2022-11-27T06:45:21;152.75;;;20.85;;
5483;SDS011;2764;48.794;8.326;2022-11-27T06:46:22;54.67;;;20.35;;
5483;SDS011;2764;48.794;8.326;2022-11-27T06:47:24;81.50;;;22.00;;
5483;SDS011;2764;48.794;8.326;2022-11-27T06:48:26;75.47;;;19.50;;
5483;SDS011;2764;48.794;8.326;2022-11-27T06:49:28;45.17;;;17.02;;
5483;SDS011;2764;48.794;8.326;2022-11-27T06:50:30;54.33;;;17.00;;